createdAt,value
2023-02-20T00:04:36.916Z,36.70
2023-02-20T00:09:40.821Z,36.60
2023-02-20T00:14:45.007Z,36.60
2023-02-20T00:19:47.792Z,36.50
2023-02-20T00:24:51.021Z,36.50
2023-02-20T00:29:55.500Z,36.30
2023-02-20T00:34:58.383Z,36.40
2023-02-20T00:40:01.453Z,36.30
2023-02-20T00:45:06.995Z,36.40
2023-02-20T00:50:10.984Z,36.20
2023-02-20T00:55:14.127Z,36.20
2023-02-20T01:00:22.394Z,36.20
2023-02-20T01:05:25.856Z,36.20
2023-02-20T01:10:29.131Z,36.20
2023-02-20T01:15:33.457Z,36.30
2023-02-20T01:20:36.301Z,35.90
2023-02-20T01:25:39.285Z,36.20
2023-02-20T01:30:43.446Z,36.00
2023-02-20T01:35:46.270Z,36.00
2023-02-20T01:40:50.190Z,36.10
2023-02-20T01:45:54.406Z,36.00
2023-02-20T01:50:59.736Z,36.10
2023-02-20T01:56:04.881Z,36.00
2023-02-20T02:01:09.264Z,36.00
2023-02-20T02:06:15.051Z,36.00
2023-02-20T02:11:19.958Z,36.00
2023-02-20T02:16:31.669Z,35.90
2023-02-20T02:22:06.085Z,35.90
2023-02-20T02:27:44.808Z,35.60
2023-02-20T02:33:07.043Z,35.80
2023-02-20T02:38:17.925Z,35.70
2023-02-20T02:43:26.105Z,35.80
2023-02-20T02:48:32.236Z,35.80
2023-02-20T02:53:36.380Z,35.70
2023-02-20T02:58:39.235Z,35.50
2023-02-20T03:03:45.118Z,35.70
2023-02-20T03:08:57.448Z,35.60
2023-02-20T03:14:23.226Z,35.50
2023-02-20T03:19:29.226Z,35.50
2023-02-20T03:24:54.425Z,35.40
2023-02-20T03:29:59.730Z,35.20
2023-02-20T03:35:21.771Z,35.30
2023-02-20T03:40:43.978Z,35.30
2023-02-20T03:45:48.490Z,35.20
2023-02-20T03:50:51.557Z,35.30
2023-02-20T03:55:56.673Z,35.20
2023-02-20T04:01:01.649Z,35.40
2023-02-20T04:06:05.565Z,35.30
2023-02-20T04:11:11.784Z,35.40
2023-02-20T04:16:15.916Z,35.40
2023-02-20T04:21:22.962Z,35.20
2023-02-20T04:26:27.418Z,35.20
2023-02-20T04:31:30.363Z,35.10
2023-02-20T04:36:33.448Z,35.20
2023-02-20T04:41:38.015Z,35.10
2023-02-20T04:46:40.797Z,35.10
2023-02-20T04:51:43.975Z,35.20
2023-02-20T04:56:48.506Z,35.20
2023-02-20T05:01:52.186Z,35.00
2023-02-20T05:06:56.310Z,35.20
2023-02-20T05:12:00.810Z,35.20
2023-02-20T05:17:03.936Z,35.20
2023-02-20T05:22:22.662Z,35.20
2023-02-20T05:27:27.978Z,35.10
2023-02-20T05:32:31.962Z,35.00
2023-02-20T05:37:35.072Z,35.00
2023-02-20T05:42:42.623Z,34.90
2023-02-20T05:47:45.667Z,35.00
2023-02-20T05:52:48.677Z,34.80
2023-02-20T05:57:52.807Z,34.80
2023-02-20T06:02:55.675Z,34.80
2023-02-20T06:07:58.778Z,34.70
2023-02-20T06:13:02.958Z,34.70
2023-02-20T06:18:05.794Z,34.90
2023-02-20T06:23:08.596Z,34.80
2023-02-20T06:28:12.972Z,34.60
2023-02-20T06:33:15.851Z,34.60
2023-02-20T06:38:18.775Z,34.70
2023-02-20T06:43:22.973Z,34.80
2023-02-20T06:48:25.894Z,34.70
2023-02-20T06:53:28.766Z,34.50
2023-02-20T06:58:33.670Z,34.30
2023-02-20T07:03:37.113Z,34.50
2023-02-20T07:08:39.956Z,34.50
2023-02-20T07:13:44.921Z,34.50
2023-02-20T07:18:47.747Z,34.50
2023-02-20T07:23:50.834Z,34.50
2023-02-20T07:28:55.564Z,34.20
2023-02-20T07:33:58.677Z,34.30
2023-02-20T07:39:03.043Z,34.20
2023-02-20T07:44:09.502Z,34.30
2023-02-20T07:49:12.866Z,34.30
2023-02-20T07:54:15.667Z,34.10
2023-02-20T07:59:19.896Z,34.30
2023-02-20T08:04:22.862Z,34.30
2023-02-20T08:09:25.938Z,34.20
2023-02-20T08:14:31.554Z,34.20
2023-02-20T08:19:34.419Z,34.50
2023-02-20T08:24:37.538Z,34.40
2023-02-20T08:29:41.687Z,34.50
2023-02-20T08:34:44.852Z,34.50
2023-02-20T08:39:47.675Z,34.60
2023-02-20T08:44:51.841Z,34.50
2023-02-20T08:49:54.665Z,34.60
2023-02-20T08:54:57.659Z,34.60
2023-02-20T09:00:01.894Z,34.60
2023-02-20T09:05:06.598Z,34.80
2023-02-20T09:10:10.569Z,34.80
2023-02-20T09:15:17.908Z,34.90
2023-02-20T09:20:22.964Z,35.10
2023-02-20T09:25:26.031Z,34.60
2023-02-20T09:30:30.330Z,34.90
2023-02-20T09:35:33.502Z,34.80
2023-02-20T09:40:36.410Z,34.90
2023-02-20T09:45:42.514Z,34.80
2023-02-20T09:50:50.298Z,35.10
2023-02-20T09:55:53.858Z,35.10
2023-02-20T10:01:02.054Z,35.30
2023-02-20T10:06:13.434Z,35.20
2023-02-20T10:11:24.795Z,35.10
2023-02-20T10:16:34.010Z,35.20
2023-02-20T10:21:51.314Z,35.10
2023-02-20T10:26:56.373Z,35.20
2023-02-20T10:32:03.364Z,35.20
2023-02-20T10:37:10.013Z,35.30
2023-02-20T10:42:15.632Z,35.10
2023-02-20T10:47:24.752Z,35.20
2023-02-20T10:52:34.489Z,35.20
2023-02-20T10:57:40.174Z,35.30
2023-02-20T11:02:47.659Z,35.20
2023-02-20T11:07:51.244Z,35.40
2023-02-20T11:12:59.313Z,35.30
2023-02-20T11:18:05.944Z,35.20
2023-02-20T11:23:10.234Z,35.20
2023-02-20T11:28:20.068Z,35.30
2023-02-20T11:33:26.494Z,35.30
2023-02-20T11:38:35.425Z,35.20
2023-02-20T11:43:43.625Z,35.40
2023-02-20T11:49:02.229Z,35.40
2023-02-20T11:54:14.890Z,35.50
2023-02-20T11:59:29.546Z,35.40
2023-02-20T12:04:33.768Z,35.30
2023-02-20T12:09:36.604Z,35.40
2023-02-20T12:14:39.470Z,35.20
2023-02-20T12:19:51.247Z,35.30
2023-02-20T12:25:05.124Z,35.60
2023-02-20T12:30:16.939Z,35.50
2023-02-20T12:35:41.719Z,35.40
2023-02-20T12:40:56.038Z,35.50
2023-02-20T12:46:06.266Z,40.10
2023-02-20T12:51:20.555Z,40.00
2023-02-20T12:56:31.470Z,39.10
2023-02-20T13:01:40.261Z,39.50
2023-02-20T13:06:48.841Z,39.20
2023-02-20T13:11:54.765Z,38.90
2023-02-20T13:17:05.547Z,41.00
2023-02-20T13:22:09.775Z,38.90
2023-02-20T13:27:29.179Z,38.50
2023-02-20T13:32:33.996Z,38.30
2023-02-20T13:37:55.375Z,38.10
2023-02-20T13:43:29.573Z,38.60
2023-02-20T13:48:43.778Z,43.50
2023-02-20T13:53:50.577Z,41.10
2023-02-20T13:58:56.247Z,39.10
2023-02-20T14:04:03.648Z,38.70
2023-02-20T14:09:10.858Z,39.10
2023-02-20T14:14:25.707Z,39.60
2023-02-20T14:19:29.823Z,39.50
2023-02-20T14:24:33.974Z,39.90
2023-02-20T14:29:37.648Z,40.90
2023-02-20T14:34:49.569Z,41.00
2023-02-20T14:39:59.510Z,40.80
2023-02-20T14:45:04.250Z,41.90
2023-02-20T14:50:16.908Z,40.90
2023-02-20T14:55:21.215Z,40.50
2023-02-20T15:00:32.167Z,43.80
2023-02-20T15:05:35.489Z,45.00
2023-02-20T15:10:41.172Z,41.80
2023-02-20T15:15:47.640Z,44.30
2023-02-20T15:20:50.594Z,42.90
2023-02-20T15:25:54.734Z,43.40
2023-02-20T15:31:23.271Z,41.20
2023-02-20T15:36:27.197Z,40.70
2023-02-20T15:41:31.360Z,38.90
2023-02-20T15:46:34.600Z,38.50
2023-02-20T15:51:40.229Z,38.10
2023-02-20T15:56:44.914Z,39.20
2023-02-20T16:01:48.620Z,39.00
2023-02-20T16:06:51.597Z,38.90
2023-02-20T16:11:55.777Z,39.00
2023-02-20T16:16:58.664Z,38.90
2023-02-20T16:22:01.509Z,38.90
2023-02-20T16:27:21.695Z,38.50
2023-02-20T16:32:27.116Z,39.10
2023-02-20T16:37:30.060Z,39.00
2023-02-20T16:42:35.655Z,38.70
2023-02-20T16:47:38.496Z,39.30
2023-02-20T16:52:42.253Z,41.20
2023-02-20T16:57:46.437Z,41.50
2023-02-20T17:02:49.305Z,41.10
2023-02-20T17:07:52.268Z,40.70
2023-02-20T17:12:57.630Z,40.40
2023-02-20T17:18:01.030Z,40.40
2023-02-20T17:23:05.577Z,40.30
2023-02-20T17:28:10.162Z,40.30
2023-02-20T17:33:12.986Z,40.10
2023-02-20T17:38:15.938Z,39.90
2023-02-20T17:43:20.128Z,40.00
2023-02-20T17:48:23.185Z,39.90
2023-02-20T17:53:25.998Z,39.70
2023-02-20T17:58:30.188Z,39.70
2023-02-20T18:03:33.053Z,39.80
2023-02-20T18:08:35.925Z,39.80
2023-02-20T18:13:40.122Z,39.50
2023-02-20T18:18:43.471Z,39.60
2023-02-20T18:23:46.538Z,39.40
2023-02-20T18:28:50.796Z,39.20
2023-02-20T18:33:55.386Z,39.20
2023-02-20T18:38:58.681Z,39.10
2023-02-20T18:44:03.030Z,39.10
2023-02-20T18:49:05.927Z,39.20
2023-02-20T18:54:10.678Z,39.00
2023-02-20T18:59:14.846Z,38.90
2023-02-20T19:04:17.893Z,39.10
2023-02-20T19:09:22.548Z,39.00
2023-02-20T19:14:29.211Z,38.90
2023-02-20T19:19:34.370Z,38.90
2023-02-20T19:24:39.422Z,38.70
2023-02-20T19:29:45.683Z,38.50
2023-02-20T19:34:48.790Z,38.80
2023-02-20T19:39:51.607Z,38.80
2023-02-20T19:44:55.781Z,38.80
2023-02-20T19:49:58.592Z,38.50
2023-02-20T19:55:01.435Z,38.50
2023-02-20T20:00:06.104Z,38.50
2023-02-20T20:05:09.458Z,38.60
2023-02-20T20:10:12.984Z,38.60
2023-02-20T20:15:19.429Z,38.40
2023-02-20T20:20:23.676Z,38.40
2023-02-20T20:25:26.506Z,38.50
2023-02-20T20:30:32.039Z,38.10
2023-02-20T20:35:34.991Z,38.40
2023-02-20T20:40:38.134Z,38.30
2023-02-20T20:45:42.253Z,38.30
2023-02-20T20:50:45.143Z,38.40
2023-02-20T20:55:47.997Z,38.20
2023-02-20T21:00:54.090Z,38.20
2023-02-20T21:05:56.984Z,38.20
2023-02-20T21:11:01.307Z,38.10
2023-02-20T21:16:07.548Z,38.10
2023-02-20T21:21:10.470Z,38.10
2023-02-20T21:26:13.684Z,37.90
2023-02-20T21:31:20.562Z,38.00
2023-02-20T21:36:24.302Z,37.80
2023-02-20T21:41:44.597Z,37.80
2023-02-20T21:46:50.748Z,37.80
2023-02-20T21:51:53.668Z,37.80
2023-02-20T21:56:57.035Z,38.00
2023-02-20T22:02:01.951Z,37.90
2023-02-20T22:07:22.687Z,37.70
2023-02-20T22:12:43.395Z,37.70
2023-02-20T22:18:05.239Z,37.60
2023-02-20T22:23:25.721Z,37.70
2023-02-20T22:28:46.237Z,37.70
2023-02-20T22:34:07.905Z,37.50
2023-02-20T22:39:30.567Z,37.60
2023-02-20T22:44:51.281Z,37.60
2023-02-20T22:50:13.090Z,37.50
2023-02-20T22:55:33.637Z,37.40
2023-02-20T23:00:54.145Z,37.50
2023-02-20T23:06:18.516Z,37.40
2023-02-20T23:11:39.614Z,37.20
2023-02-20T23:17:00.036Z,37.10
2023-02-20T23:22:22.046Z,37.40
2023-02-20T23:27:42.453Z,37.20
2023-02-20T23:33:02.975Z,37.20
2023-02-20T23:38:24.785Z,37.10
2023-02-20T23:43:46.708Z,37.20
2023-02-20T23:49:07.303Z,37.10
2023-02-20T23:54:29.186Z,37.10
2023-02-20T23:59:49.698Z,37.00
